createdAt,value
2016-12-04T00:00:10.056Z,41.06
2016-12-04T00:00:42.388Z,41.06
2016-12-04T00:01:14.691Z,40.67
2016-12-04T00:01:46.999Z,40.67
2016-12-04T00:02:19.304Z,40.87
2016-12-04T00:02:51.614Z,41.06
2016-12-04T00:03:23.933Z,40.87
2016-12-04T00:03:56.236Z,40.96
2016-12-04T00:04:28.558Z,40.96
2016-12-04T00:05:00.862Z,40.96
2016-12-04T00:05:33.182Z,41.06
2016-12-04T00:06:05.526Z,40.48
2016-12-04T00:06:37.885Z,41.16
2016-12-04T00:07:10.213Z,40.58
2016-12-04T00:07:42.533Z,40.67
2016-12-04T00:08:14.847Z,41.06
2016-12-04T00:08:47.179Z,40.58
2016-12-04T00:09:19.489Z,40.87
2016-12-04T00:09:51.818Z,40.77
2016-12-04T00:10:24.153Z,41.06
2016-12-04T00:10:56.477Z,40.77
2016-12-04T00:11:28.809Z,40.96
2016-12-04T00:12:01.124Z,40.77
2016-12-04T00:12:33.429Z,40.77
2016-12-04T00:13:05.752Z,40.67
2016-12-04T00:13:38.076Z,41.16
2016-12-04T00:14:10.409Z,40.77
2016-12-04T00:14:42.719Z,40.58
2016-12-04T00:15:15.046Z,40.58
2016-12-04T00:15:47.363Z,41.06
2016-12-04T00:16:19.673Z,40.96
2016-12-04T00:16:51.995Z,40.77
2016-12-04T00:17:24.307Z,40.67
2016-12-04T00:17:56.607Z,40.58
2016-12-04T00:18:28.902Z,40.58
2016-12-04T00:19:01.234Z,40.77
2016-12-04T00:19:33.565Z,40.77
2016-12-04T00:20:05.883Z,40.67
2016-12-04T00:20:38.192Z,40.67
2016-12-04T00:21:10.494Z,40.67
2016-12-04T00:21:42.805Z,40.77
2016-12-04T00:22:15.117Z,40.67
2016-12-04T00:22:47.429Z,40.48
2016-12-04T00:23:19.747Z,40.77
2016-12-04T00:23:52.073Z,40.58
2016-12-04T00:24:24.385Z,40.67
2016-12-04T00:24:56.708Z,40.48
2016-12-04T00:25:29.009Z,40.48
2016-12-04T00:26:01.344Z,40.77
2016-12-04T00:26:33.659Z,40.67
2016-12-04T00:27:05.979Z,40.67
2016-12-04T00:27:38.308Z,40.77
2016-12-04T00:28:10.622Z,40.67
2016-12-04T00:28:42.918Z,40.67
2016-12-04T00:29:15.217Z,40.58
2016-12-04T00:29:47.546Z,40.67
2016-12-04T00:30:19.852Z,40.67
2016-12-04T00:30:52.176Z,40.67
2016-12-04T00:31:24.500Z,40.67
2016-12-04T00:31:56.827Z,40.58
2016-12-04T00:32:29.145Z,40.58
2016-12-04T00:33:01.461Z,40.48
2016-12-04T00:33:33.788Z,40.67
2016-12-04T00:34:06.080Z,40.77
2016-12-04T00:34:38.385Z,40.39
2016-12-04T00:35:10.710Z,40.77
2016-12-04T00:35:43.028Z,40.48
2016-12-04T00:36:15.356Z,40.67
2016-12-04T00:36:47.673Z,40.58
2016-12-04T00:37:19.992Z,40.77
2016-12-04T00:37:52.316Z,40.39
2016-12-04T00:38:24.624Z,40.29
2016-12-04T00:38:56.936Z,40.77
2016-12-04T00:39:29.261Z,40.39
2016-12-04T00:40:01.599Z,40.39
2016-12-04T00:40:33.908Z,40.77
2016-12-04T00:41:06.225Z,40.77
2016-12-04T00:41:38.535Z,40.48
2016-12-04T00:42:10.883Z,40.67
2016-12-04T00:42:43.196Z,40.58
2016-12-04T00:43:15.502Z,40.67
2016-12-04T00:43:47.819Z,40.67
2016-12-04T00:44:20.120Z,40.48
2016-12-04T00:44:52.421Z,40.58
2016-12-04T00:45:24.743Z,40.67
2016-12-04T00:45:57.095Z,40.67
2016-12-04T00:46:29.394Z,40.48
2016-12-04T00:47:01.704Z,40.77
2016-12-04T00:47:34.001Z,40.39
2016-12-04T00:48:06.305Z,40.58
2016-12-04T00:48:38.619Z,40.77
2016-12-04T00:49:10.940Z,40.87
2016-12-04T00:49:43.241Z,40.58
2016-12-04T00:50:15.563Z,40.67
2016-12-04T00:50:47.889Z,40.58
2016-12-04T00:51:20.208Z,40.67
2016-12-04T00:51:52.524Z,40.58
2016-12-04T00:52:24.853Z,40.67
2016-12-04T00:52:57.172Z,40.58
2016-12-04T00:53:29.484Z,40.58
2016-12-04T00:54:01.804Z,40.77
2016-12-04T00:54:34.112Z,40.67
2016-12-04T00:55:06.423Z,40.67
2016-12-04T00:55:38.720Z,40.48
2016-12-04T00:56:11.035Z,40.48
2016-12-04T00:56:43.318Z,40.29
2016-12-04T00:57:15.636Z,40.39
2016-12-04T00:57:47.935Z,40.39
2016-12-04T00:58:20.250Z,40.58
2016-12-04T00:58:52.590Z,40.48
2016-12-04T00:59:24.894Z,40.58
2016-12-04T00:59:57.215Z,40.39
2016-12-04T01:00:29.537Z,40.58
2016-12-04T01:01:01.890Z,40.58
2016-12-04T01:01:34.205Z,40.48
2016-12-04T01:02:06.524Z,40.48
2016-12-04T01:02:38.847Z,40.48
2016-12-04T01:03:11.170Z,40.58
2016-12-04T01:03:43.497Z,40.39
2016-12-04T01:04:15.821Z,40.58
2016-12-04T01:04:48.124Z,40.39
2016-12-04T01:05:20.457Z,40.39
2016-12-04T01:05:52.811Z,40.29
2016-12-04T01:06:25.096Z,40.48
2016-12-04T01:06:57.425Z,40.48
2016-12-04T01:07:29.737Z,40.29
2016-12-04T01:08:02.051Z,40.29
2016-12-04T01:08:34.350Z,40.67
2016-12-04T01:09:06.655Z,40.29
2016-12-04T01:09:38.977Z,40.2
2016-12-04T01:10:11.303Z,40.29
2016-12-04T01:10:43.607Z,40.2
2016-12-04T01:11:15.946Z,40.39
2016-12-04T01:11:48.291Z,40.48
2016-12-04T01:12:20.601Z,40.29
2016-12-04T01:12:52.921Z,40.39
2016-12-04T01:13:25.232Z,40.39
2016-12-04T01:13:57.555Z,40.29
2016-12-04T01:14:29.864Z,40.39
2016-12-04T01:15:02.171Z,40.2
2016-12-04T01:15:34.482Z,40.2
2016-12-04T01:16:06.789Z,40.29
2016-12-04T01:16:39.112Z,40.2
2016-12-04T01:17:11.419Z,40.29
2016-12-04T01:17:43.736Z,40.2
2016-12-04T01:18:16.027Z,40
2016-12-04T01:18:48.346Z,40.29
2016-12-04T01:19:20.646Z,40.29
2016-12-04T01:19:52.946Z,40.29
2016-12-04T01:20:25.248Z,40.29
2016-12-04T01:20:57.560Z,40.1
2016-12-04T01:21:29.865Z,40.1
2016-12-04T01:22:02.172Z,40
2016-12-04T01:22:34.481Z,40.1
2016-12-04T01:23:06.788Z,40.1
2016-12-04T01:23:39.106Z,40.2
2016-12-04T01:24:11.405Z,40.1
2016-12-04T01:24:43.713Z,40.1
2016-12-04T01:25:16.009Z,40.2
2016-12-04T01:25:48.316Z,40.1
2016-12-04T01:26:20.615Z,40.1
2016-12-04T01:26:52.918Z,40
2016-12-04T01:27:25.234Z,40.29
2016-12-04T01:27:57.552Z,40.2
2016-12-04T01:28:29.862Z,40.2
2016-12-04T01:29:02.166Z,40.29
2016-12-04T01:29:34.466Z,40
2016-12-04T01:30:06.770Z,40.2
2016-12-04T01:30:39.072Z,40.29
2016-12-04T01:31:11.386Z,40
2016-12-04T01:31:43.681Z,40
2016-12-04T01:32:16.007Z,40.2
2016-12-04T01:32:48.326Z,40.2
2016-12-04T01:33:20.636Z,40.29
2016-12-04T01:33:52.954Z,40.2
2016-12-04T01:34:25.277Z,40.1
2016-12-04T01:34:57.602Z,40.2
2016-12-04T01:35:29.896Z,40
2016-12-04T01:36:02.212Z,40
2016-12-04T01:36:34.513Z,40.1
2016-12-04T01:37:06.817Z,40
2016-12-04T01:37:39.164Z,40
2016-12-04T01:38:11.483Z,40.2
2016-12-04T01:38:43.796Z,40.1
2016-12-04T01:39:16.106Z,40
2016-12-04T01:39:48.425Z,40.1
2016-12-04T01:40:20.720Z,40.2
2016-12-04T01:40:53.042Z,40.39
2016-12-04T01:41:25.360Z,40
2016-12-04T01:41:57.680Z,40
2016-12-04T01:42:29.996Z,40.29
2016-12-04T01:43:02.317Z,40.29
2016-12-04T01:43:34.636Z,40.1
2016-12-04T01:44:06.952Z,40.2
2016-12-04T01:44:39.261Z,39.91
2016-12-04T01:45:11.613Z,40.2
2016-12-04T01:45:43.915Z,40.1
2016-12-04T01:46:16.223Z,40
2016-12-04T01:46:48.559Z,40.58
2016-12-04T01:47:20.866Z,40.29
2016-12-04T01:47:53.181Z,40.2
2016-12-04T01:48:25.479Z,40.29
2016-12-04T01:48:57.772Z,40.2
2016-12-04T01:49:30.094Z,40.1
2016-12-04T01:50:02.411Z,40.48
2016-12-04T01:50:34.740Z,40.48
2016-12-04T01:51:07.043Z,39.81
2016-12-04T01:51:39.373Z,40.48
2016-12-04T01:52:11.693Z,40.29
2016-12-04T01:52:44.018Z,40.2
2016-12-04T01:53:16.315Z,39.81
2016-12-04T01:53:48.633Z,40.2
2016-12-04T01:54:20.940Z,40
2016-12-04T01:54:53.275Z,40.39
2016-12-04T01:55:25.598Z,40.39
2016-12-04T01:55:57.911Z,40.39
2016-12-04T01:56:30.256Z,39.81
2016-12-04T01:57:02.583Z,40.1
2016-12-04T01:57:34.918Z,39.81
2016-12-04T01:58:07.256Z,40.1
2016-12-04T01:58:39.556Z,39.62
2016-12-04T01:59:11.863Z,39.91
2016-12-04T01:59:44.173Z,39.62
2016-12-04T02:00:16.483Z,39.72
2016-12-04T02:00:48.802Z,39.72
2016-12-04T02:01:21.111Z,40
2016-12-04T02:01:53.426Z,39.91
2016-12-04T02:02:25.735Z,40
2016-12-04T02:02:58.071Z,39.72
2016-12-04T02:03:30.388Z,39.62
2016-12-04T02:04:02.685Z,40.2
2016-12-04T02:04:34.984Z,39.62
2016-12-04T02:05:07.315Z,39.81
2016-12-04T02:05:39.619Z,40.08
2016-12-04T02:06:11.932Z,39.62
2016-12-04T02:06:44.247Z,39.81
2016-12-04T02:07:16.565Z,40.1
2016-12-04T02:07:48.879Z,39.72
2016-12-04T02:08:21.189Z,40.1
2016-12-04T02:08:53.519Z,40.1
2016-12-04T02:09:25.860Z,40
2016-12-04T02:09:58.175Z,40
2016-12-04T02:10:30.480Z,40.1
2016-12-04T02:11:02.799Z,40
2016-12-04T02:11:35.141Z,40
2016-12-04T02:12:07.470Z,39.91
2016-12-04T02:12:39.793Z,40
2016-12-04T02:13:12.102Z,39.98
2016-12-04T02:13:44.410Z,39.91
2016-12-04T02:14:16.719Z,40
2016-12-04T02:14:49.057Z,39.91
2016-12-04T02:15:21.357Z,39.91
2016-12-04T02:15:53.672Z,39.91
2016-12-04T02:16:25.982Z,39.91
2016-12-04T02:16:58.312Z,39.91
2016-12-04T02:17:30.624Z,39.91
2016-12-04T02:18:02.947Z,39.91
2016-12-04T02:18:35.285Z,39.81
2016-12-04T02:19:07.609Z,39.91
2016-12-04T02:19:39.912Z,39.81
2016-12-04T02:20:12.198Z,39.91
2016-12-04T02:20:44.504Z,39.91
2016-12-04T02:21:16.818Z,39.81
2016-12-04T02:21:49.119Z,40.1
2016-12-04T02:22:21.444Z,39.81
2016-12-04T02:22:53.755Z,40
2016-12-04T02:23:26.089Z,39.91
2016-12-04T02:23:58.405Z,39.81
2016-12-04T02:24:30.713Z,40.1
2016-12-04T02:25:03.034Z,40
2016-12-04T02:25:35.349Z,40.1
2016-12-04T02:26:07.668Z,39.91
2016-12-04T02:26:39.968Z,39.91
2016-12-04T02:27:12.270Z,40
2016-12-04T02:27:44.579Z,40.08
2016-12-04T02:28:16.895Z,39.91
2016-12-04T02:28:49.207Z,39.91
2016-12-04T02:29:21.538Z,40.2
2016-12-04T02:29:53.832Z,39.89
2016-12-04T02:30:26.156Z,40.1
2016-12-04T02:30:58.478Z,40
2016-12-04T02:31:30.819Z,40
2016-12-04T02:32:03.122Z,40.1
2016-12-04T02:32:35.445Z,40.17
2016-12-04T02:33:07.744Z,40.1
2016-12-04T02:33:40.090Z,40.2
2016-12-04T02:34:12.417Z,40
2016-12-04T02:34:44.726Z,40
2016-12-04T02:35:17.038Z,39.98
2016-12-04T02:35:49.358Z,40.1
2016-12-04T02:36:21.671Z,40
2016-12-04T02:36:53.975Z,40
2016-12-04T02:37:26.296Z,40
2016-12-04T02:37:58.614Z,40.2
2016-12-04T02:38:30.906Z,40
2016-12-04T02:39:03.224Z,40.2
2016-12-04T02:39:35.559Z,40
2016-12-04T02:40:07.883Z,40.1
2016-12-04T02:40:40.191Z,40
2016-12-04T02:41:12.531Z,39.98
2016-12-04T02:41:44.842Z,40.2
2016-12-04T02:42:17.165Z,40
2016-12-04T02:42:49.479Z,40.1
2016-12-04T02:43:21.781Z,40
2016-12-04T02:43:54.114Z,39.91
2016-12-04T02:44:26.444Z,39.81
2016-12-04T02:44:58.754Z,39.81
2016-12-04T02:45:31.073Z,40.1
2016-12-04T02:46:03.371Z,40
2016-12-04T02:46:35.689Z,39.62
2016-12-04T02:47:08.025Z,39.6
2016-12-04T02:47:40.328Z,39.91
2016-12-04T02:48:12.641Z,40.2
2016-12-04T02:48:44.974Z,40.17
2016-12-04T02:49:17.274Z,39.62
2016-12-04T02:49:49.600Z,39.62
2016-12-04T02:50:21.907Z,39.53
2016-12-04T02:50:54.235Z,39.62
2016-12-04T02:51:26.538Z,39.72
2016-12-04T02:51:58.867Z,39.91
2016-12-04T02:52:31.199Z,40.17
2016-12-04T02:53:03.526Z,39.91
2016-12-04T02:53:35.841Z,39.62
2016-12-04T02:54:08.142Z,39.72
2016-12-04T02:54:40.447Z,39.72
2016-12-04T02:55:12.761Z,39.72
2016-12-04T02:55:45.095Z,39.91
2016-12-04T02:56:17.398Z,39.72
2016-12-04T02:56:49.720Z,39.72
2016-12-04T02:57:22.027Z,39.72
2016-12-04T02:57:54.355Z,39.62
2016-12-04T02:58:26.658Z,39.62
2016-12-04T02:58:58.957Z,39.81
2016-12-04T02:59:31.256Z,40.1
2016-12-04T03:00:03.579Z,39.72
2016-12-04T03:00:35.903Z,39.62
2016-12-04T03:01:08.227Z,40.1
2016-12-04T03:01:40.546Z,39.72
2016-12-04T03:02:12.861Z,40.1
2016-12-04T03:02:45.159Z,40.1
2016-12-04T03:03:17.466Z,39.72
2016-12-04T03:03:49.777Z,40.1
2016-12-04T03:04:22.095Z,40
2016-12-04T03:04:54.435Z,40
2016-12-04T03:05:26.745Z,39.79
2016-12-04T03:05:59.057Z,39.91
2016-12-04T03:06:31.370Z,39.72
2016-12-04T03:07:03.686Z,40
2016-12-04T03:07:36.015Z,39.72
2016-12-04T03:08:08.324Z,39.72
2016-12-04T03:08:40.634Z,40
2016-12-04T03:09:12.950Z,39.98
2016-12-04T03:09:45.268Z,39.98
2016-12-04T03:10:17.572Z,39.91
2016-12-04T03:10:49.879Z,39.7
2016-12-04T03:11:22.206Z,40
2016-12-04T03:11:54.543Z,40
2016-12-04T03:12:26.890Z,40
2016-12-04T03:12:59.201Z,39.81
2016-12-04T03:13:31.522Z,40
2016-12-04T03:14:03.831Z,39.7
2016-12-04T03:14:36.177Z,39.98
2016-12-04T03:15:08.488Z,39.72
2016-12-04T03:15:40.834Z,39.98
2016-12-04T03:16:13.149Z,39.91
2016-12-04T03:16:45.471Z,39.81
2016-12-04T03:17:17.816Z,39.81
2016-12-04T03:17:50.121Z,39.7
2016-12-04T03:18:22.452Z,39.81
2016-12-04T03:18:54.779Z,39.89
2016-12-04T03:19:27.153Z,40.08
2016-12-04T03:19:59.480Z,40.1
2016-12-04T03:20:31.799Z,40.08
2016-12-04T03:21:04.096Z,39.91
2016-12-04T03:21:36.411Z,40
2016-12-04T03:22:08.713Z,39.79
2016-12-04T03:22:41.017Z,39.89
2016-12-04T03:23:13.330Z,39.89
2016-12-04T03:23:45.645Z,39.91
2016-12-04T03:24:17.973Z,39.91
2016-12-04T03:24:50.261Z,39.91
2016-12-04T03:25:22.575Z,39.79
2016-12-04T03:25:54.913Z,39.81
2016-12-04T03:26:27.237Z,39.81
2016-12-04T03:26:59.532Z,40.08
2016-12-04T03:27:31.862Z,39.98
2016-12-04T03:28:04.197Z,39.89
2016-12-04T03:28:36.500Z,39.98
2016-12-04T03:29:08.812Z,39.91
2016-12-04T03:29:41.135Z,39.5
2016-12-04T03:30:13.442Z,40.1
2016-12-04T03:30:45.773Z,39.81
2016-12-04T03:31:18.076Z,39.79
2016-12-04T03:31:50.391Z,39.89
2016-12-04T03:32:22.702Z,39.5
2016-12-04T03:32:55.016Z,40
2016-12-04T03:33:27.326Z,39.6
2016-12-04T03:33:59.651Z,39.53
2016-12-04T03:34:31.964Z,39.72
2016-12-04T03:35:04.289Z,39.79
2016-12-04T03:35:36.596Z,39.79
2016-12-04T03:36:08.900Z,39.81
2016-12-04T03:36:41.213Z,39.72
2016-12-04T03:37:13.540Z,39.98
2016-12-04T03:37:45.876Z,39.98
2016-12-04T03:38:18.211Z,39.7
2016-12-04T03:38:50.518Z,39.79
2016-12-04T03:39:22.830Z,39.7
2016-12-04T03:39:55.163Z,39.98
2016-12-04T03:40:27.497Z,39.7
2016-12-04T03:40:59.820Z,39.6
2016-12-04T03:41:32.147Z,39.6
2016-12-04T03:42:04.462Z,39.6
2016-12-04T03:42:36.760Z,39.6
2016-12-04T03:43:09.077Z,39.79
2016-12-04T03:43:41.379Z,39.6
2016-12-04T03:44:13.689Z,39.53
2016-12-04T03:44:45.998Z,39.89
2016-12-04T03:45:18.315Z,39.89
2016-12-04T03:45:50.651Z,39.89
2016-12-04T03:46:22.988Z,39.7
2016-12-04T03:46:55.317Z,39.43
2016-12-04T03:47:27.617Z,39.6
2016-12-04T03:47:59.914Z,39.79
2016-12-04T03:48:32.228Z,39.62
2016-12-04T03:49:04.558Z,39.81
2016-12-04T03:49:36.891Z,39.6
2016-12-04T03:50:09.197Z,39.89
2016-12-04T03:50:41.511Z,39.62
2016-12-04T03:51:13.823Z,39.72
2016-12-04T03:51:46.133Z,39.6
2016-12-04T03:52:18.461Z,39.41
2016-12-04T03:52:50.794Z,39.6
2016-12-04T03:53:23.103Z,39.6
2016-12-04T03:53:55.413Z,39.43
2016-12-04T03:54:27.720Z,39.6
2016-12-04T03:55:00.040Z,39.6
2016-12-04T03:55:32.337Z,39.6
2016-12-04T03:56:04.663Z,39.62
2016-12-04T03:56:36.992Z,39.43
2016-12-04T03:57:09.321Z,39.72
2016-12-04T03:57:41.640Z,39.6
2016-12-04T03:58:13.950Z,39.43
2016-12-04T03:58:46.257Z,39.6
2016-12-04T03:59:18.603Z,39.5
2016-12-04T03:59:50.945Z,39.7
2016-12-04T04:00:23.248Z,39.72
2016-12-04T04:00:55.569Z,39.43
2016-12-04T04:01:27.881Z,39.41
2016-12-04T04:02:00.211Z,39.7
2016-12-04T04:02:32.534Z,39.5
2016-12-04T04:03:04.839Z,39.6
2016-12-04T04:03:37.170Z,39.41
2016-12-04T04:04:09.485Z,39.41
2016-12-04T04:04:41.800Z,39.6
2016-12-04T04:05:14.111Z,39.5
2016-12-04T04:05:46.423Z,39.62
2016-12-04T04:06:18.741Z,39.53
2016-12-04T04:06:51.049Z,39.41
2016-12-04T04:07:23.367Z,39.6
2016-12-04T04:07:55.692Z,39.53
2016-12-04T04:08:28.008Z,39.5
2016-12-04T04:09:00.318Z,39.41
2016-12-04T04:09:32.615Z,39.53
2016-12-04T04:10:04.906Z,39.5
2016-12-04T04:10:37.251Z,39.41
2016-12-04T04:11:09.575Z,39.31
2016-12-04T04:11:41.888Z,39.41
2016-12-04T04:12:14.197Z,39.6
2016-12-04T04:12:46.500Z,39.7
2016-12-04T04:13:18.831Z,39.6
2016-12-04T04:13:51.156Z,39.5
2016-12-04T04:14:23.461Z,39.79
2016-12-04T04:14:55.787Z,39.5
2016-12-04T04:15:28.129Z,39.41
2016-12-04T04:16:00.441Z,39.41
2016-12-04T04:16:32.750Z,39.62
2016-12-04T04:17:05.071Z,39.41
2016-12-04T04:17:37.406Z,39.5
2016-12-04T04:18:09.728Z,39.62
2016-12-04T04:18:42.032Z,39.5
2016-12-04T04:19:14.349Z,39.6
2016-12-04T04:19:46.659Z,39.41
2016-12-04T04:20:18.974Z,39.7
2016-12-04T04:20:51.302Z,39.6
2016-12-04T04:21:23.629Z,39.6
2016-12-04T04:21:55.964Z,39.31
2016-12-04T04:22:28.277Z,39.7
2016-12-04T04:23:00.611Z,39.22
2016-12-04T04:23:32.927Z,39.7
2016-12-04T04:24:05.245Z,39.79
2016-12-04T04:24:37.548Z,39.41
2016-12-04T04:25:09.867Z,39.6
2016-12-04T04:25:42.224Z,39.7
2016-12-04T04:26:14.552Z,39.7
2016-12-04T04:26:46.852Z,39.41
2016-12-04T04:27:19.162Z,39.7
2016-12-04T04:27:51.477Z,39.31
2016-12-04T04:28:23.791Z,39.6
2016-12-04T04:28:56.103Z,39.12
2016-12-04T04:29:28.396Z,39.33
2016-12-04T04:30:00.698Z,39.31
2016-12-04T04:30:33.007Z,39.03
2016-12-04T04:31:05.313Z,39.5
2016-12-04T04:31:37.620Z,39.6
2016-12-04T04:32:09.952Z,39.7
2016-12-04T04:32:42.261Z,39.5
2016-12-04T04:33:14.584Z,39.12
2016-12-04T04:33:46.891Z,39.5
2016-12-04T04:34:19.199Z,39.41
2016-12-04T04:34:51.493Z,39.43
2016-12-04T04:35:23.807Z,39.41
2016-12-04T04:35:56.103Z,39.6
2016-12-04T04:36:28.424Z,39.22
2016-12-04T04:37:00.725Z,39.03
2016-12-04T04:37:33.030Z,39.12
2016-12-04T04:38:05.364Z,39.62
2016-12-04T04:38:37.685Z,39.6
2016-12-04T04:39:10.038Z,39.03
2016-12-04T04:39:42.383Z,39.22
2016-12-04T04:40:14.711Z,39.03
2016-12-04T04:40:47.023Z,39.72
2016-12-04T04:41:19.316Z,39.6
2016-12-04T04:41:51.662Z,39.41
2016-12-04T04:42:23.951Z,39.6
2016-12-04T04:42:56.263Z,39.5
2016-12-04T04:43:28.573Z,39.12
2016-12-04T04:44:00.865Z,39.6
2016-12-04T04:44:33.159Z,39.31
2016-12-04T04:45:05.473Z,39.03
2016-12-04T04:45:37.806Z,39.31
2016-12-04T04:46:10.110Z,39.03
2016-12-04T04:46:42.414Z,39.31
2016-12-04T04:47:14.727Z,39.12
2016-12-04T04:47:47.068Z,39.41
2016-12-04T04:48:19.398Z,39.22
2016-12-04T04:48:51.703Z,39.31
2016-12-04T04:49:24.016Z,39.31
2016-12-04T04:49:56.318Z,38.93
2016-12-04T04:50:28.647Z,39.12
2016-12-04T04:51:00.967Z,39.22
2016-12-04T04:51:33.298Z,39.22
2016-12-04T04:52:05.644Z,38.93
2016-12-04T04:52:37.937Z,39.12
2016-12-04T04:53:10.289Z,39.03
2016-12-04T04:53:42.607Z,39.31
2016-12-04T04:54:14.905Z,39.12
2016-12-04T04:54:47.240Z,39.03
2016-12-04T04:55:19.573Z,38.93
2016-12-04T04:55:51.889Z,39.22
2016-12-04T04:56:24.225Z,39.03
2016-12-04T04:56:56.530Z,38.83
2016-12-04T04:57:28.832Z,39.12
2016-12-04T04:58:01.130Z,38.93
2016-12-04T04:58:33.446Z,38.93
2016-12-04T04:59:05.759Z,38.93
2016-12-04T04:59:38.081Z,39.03
2016-12-04T05:00:10.410Z,39.41
2016-12-04T05:00:42.718Z,39.31
2016-12-04T05:01:15.023Z,39.03
2016-12-04T05:01:47.350Z,39.31
2016-12-04T05:02:19.675Z,39.22
2016-12-04T05:02:52.003Z,39.22
2016-12-04T05:03:24.318Z,39.31
2016-12-04T05:03:56.629Z,39.41
2016-12-04T05:04:28.939Z,39.22
2016-12-04T05:05:01.261Z,39.41
2016-12-04T05:05:33.575Z,39.22
2016-12-04T05:06:05.882Z,39.22
2016-12-04T05:06:38.187Z,39.12
2016-12-04T05:07:10.496Z,39.31
2016-12-04T05:07:42.806Z,39.41
2016-12-04T05:08:15.105Z,38.93
2016-12-04T05:08:47.406Z,39.41
2016-12-04T05:09:19.707Z,39.03
2016-12-04T05:09:52.055Z,39.31
2016-12-04T05:10:24.383Z,39.12
2016-12-04T05:10:56.716Z,39.03
2016-12-04T05:11:29.030Z,39.22
2016-12-04T05:12:01.347Z,39.41
2016-12-04T05:12:33.683Z,39.41
2016-12-04T05:13:06.003Z,39.03
2016-12-04T05:13:38.314Z,39.12
2016-12-04T05:14:10.612Z,39.03
2016-12-04T05:14:42.924Z,39.14
2016-12-04T05:15:15.236Z,39.12
2016-12-04T05:15:47.529Z,39.03
2016-12-04T05:16:19.830Z,39.12
2016-12-04T05:16:52.146Z,39.12
2016-12-04T05:17:24.456Z,39.41
2016-12-04T05:17:56.780Z,39.22
2016-12-04T05:18:29.104Z,39.12
2016-12-04T05:19:01.408Z,39.03
2016-12-04T05:19:33.725Z,39.03
2016-12-04T05:20:06.038Z,39.12
2016-12-04T05:20:38.345Z,39.04
2016-12-04T05:21:10.655Z,39.12
2016-12-04T05:21:42.991Z,39.03
2016-12-04T05:22:15.299Z,39.12
2016-12-04T05:22:47.635Z,39.12
2016-12-04T05:23:19.942Z,39.12
2016-12-04T05:23:52.264Z,39.12
2016-12-04T05:24:24.566Z,38.93
2016-12-04T05:24:56.876Z,39.12
2016-12-04T05:25:29.199Z,39.22
2016-12-04T05:26:01.524Z,38.83
2016-12-04T05:26:33.848Z,39.03
2016-12-04T05:27:06.159Z,39.12
2016-12-04T05:27:38.469Z,39.12
2016-12-04T05:28:10.788Z,38.83
2016-12-04T05:28:43.096Z,39.03
2016-12-04T05:29:15.409Z,39.03
2016-12-04T05:29:47.711Z,38.83
2016-12-04T05:30:20.014Z,39.12
2016-12-04T05:30:52.315Z,38.93
2016-12-04T05:31:24.620Z,39.03
2016-12-04T05:31:56.956Z,38.93
2016-12-04T05:32:29.277Z,39.22
2016-12-04T05:33:01.615Z,39.03
2016-12-04T05:33:33.942Z,39.03
2016-12-04T05:34:06.314Z,39.12
2016-12-04T05:34:38.606Z,38.83
2016-12-04T05:35:10.989Z,38.83
2016-12-04T05:35:43.305Z,39.12
2016-12-04T05:36:15.610Z,39.03
2016-12-04T05:36:47.932Z,39.12
2016-12-04T05:37:20.245Z,39.03
2016-12-04T05:37:52.566Z,38.83
2016-12-04T05:38:24.889Z,39.03
2016-12-04T05:38:57.213Z,39.03
2016-12-04T05:39:29.517Z,38.93
2016-12-04T05:40:01.840Z,39.12
2016-12-04T05:40:34.151Z,38.93
2016-12-04T05:41:06.460Z,39.12
2016-12-04T05:41:38.782Z,39.12
2016-12-04T05:42:11.077Z,39.12
2016-12-04T05:42:43.392Z,39.12
2016-12-04T05:43:15.714Z,39.22
2016-12-04T05:43:48.046Z,38.93
2016-12-04T05:44:20.364Z,39.22
2016-12-04T05:44:52.650Z,39.12
2016-12-04T05:45:24.981Z,39.22
2016-12-04T05:45:57.295Z,39.22
2016-12-04T05:46:29.609Z,39.22
2016-12-04T05:47:01.924Z,38.93
2016-12-04T05:47:34.227Z,39.31
2016-12-04T05:48:06.537Z,39.22
2016-12-04T05:48:38.859Z,39.5
2016-12-04T05:49:11.163Z,38.93
2016-12-04T05:49:43.468Z,39.12
2016-12-04T05:50:15.770Z,38.93
2016-12-04T05:50:48.073Z,38.83
2016-12-04T05:51:20.390Z,38.93
2016-12-04T05:51:52.689Z,39.22
2016-12-04T05:52:25.006Z,39.12
2016-12-04T05:52:57.305Z,38.74
2016-12-04T05:53:29.622Z,38.93
2016-12-04T05:54:01.917Z,38.83
2016-12-04T05:54:34.232Z,39.12
2016-12-04T05:55:06.547Z,39.12
2016-12-04T05:55:38.865Z,39.12
2016-12-04T05:56:11.166Z,38.93
2016-12-04T05:56:43.511Z,38.83
2016-12-04T05:57:15.816Z,39.12
2016-12-04T05:57:48.137Z,39.04
2016-12-04T05:58:20.433Z,38.93
2016-12-04T05:58:52.743Z,39.12
2016-12-04T05:59:25.084Z,38.83
2016-12-04T05:59:57.397Z,38.93
2016-12-04T06:00:29.717Z,38.93
2016-12-04T06:01:02.034Z,38.74
2016-12-04T06:01:34.364Z,39.03
2016-12-04T06:02:06.678Z,38.64
2016-12-04T06:02:38.987Z,39.12
2016-12-04T06:03:11.309Z,39.03
2016-12-04T06:03:43.623Z,39.03
2016-12-04T06:04:15.950Z,39.03
2016-12-04T06:04:48.269Z,39.03
2016-12-04T06:05:20.593Z,38.64
2016-12-04T06:05:52.923Z,39.03
2016-12-04T06:06:25.256Z,38.83
2016-12-04T06:06:57.572Z,39.22
2016-12-04T06:07:29.912Z,39.12
2016-12-04T06:08:02.227Z,39.12
2016-12-04T06:08:34.551Z,39.12
2016-12-04T06:09:06.860Z,38.93
2016-12-04T06:09:39.206Z,38.83
2016-12-04T06:10:11.517Z,38.64
2016-12-04T06:10:43.822Z,39.22
2016-12-04T06:11:16.155Z,39.12
2016-12-04T06:11:48.455Z,38.74
2016-12-04T06:12:20.765Z,38.64
2016-12-04T06:12:53.079Z,39.12
2016-12-04T06:13:25.391Z,38.64
2016-12-04T06:13:57.705Z,38.93
2016-12-04T06:14:30.011Z,39.12
2016-12-04T06:15:02.334Z,39.12
2016-12-04T06:15:34.645Z,38.74
2016-12-04T06:16:06.967Z,39.12
2016-12-04T06:16:39.271Z,38.74
2016-12-04T06:17:11.587Z,38.74
2016-12-04T06:17:43.875Z,39.12
2016-12-04T06:18:16.187Z,38.74
2016-12-04T06:18:48.510Z,38.74
2016-12-04T06:19:20.833Z,38.74
2016-12-04T06:19:53.157Z,38.74
2016-12-04T06:20:25.475Z,39.12
2016-12-04T06:20:57.781Z,38.74
2016-12-04T06:21:30.083Z,38.93
2016-12-04T06:22:02.428Z,39.12
2016-12-04T06:22:34.742Z,39.12
2016-12-04T06:23:07.057Z,39.12
2016-12-04T06:23:39.386Z,39.12
2016-12-04T06:24:11.701Z,39.12
2016-12-04T06:24:44.016Z,38.93
2016-12-04T06:25:16.346Z,39.12
2016-12-04T06:25:48.663Z,38.74
2016-12-04T06:26:20.978Z,39.03
2016-12-04T06:26:53.288Z,39.12
2016-12-04T06:27:25.611Z,39.03
2016-12-04T06:27:57.909Z,39.03
2016-12-04T06:28:30.214Z,39.03
2016-12-04T06:29:02.524Z,38.93
2016-12-04T06:29:34.841Z,38.74
2016-12-04T06:30:07.156Z,39.12
2016-12-04T06:30:39.472Z,39.22
2016-12-04T06:31:11.804Z,38.93
2016-12-04T06:31:44.101Z,39.12
2016-12-04T06:32:16.410Z,39.03
2016-12-04T06:32:48.717Z,38.93
2016-12-04T06:33:21.030Z,38.93
2016-12-04T06:33:53.350Z,38.83
2016-12-04T06:34:25.698Z,39.03
2016-12-04T06:34:58.014Z,39.03
2016-12-04T06:35:30.345Z,39.12
2016-12-04T06:36:02.663Z,39.03
2016-12-04T06:36:35.005Z,38.83
2016-12-04T06:37:07.318Z,38.83
2016-12-04T06:37:39.624Z,38.83
2016-12-04T06:38:11.933Z,38.93
2016-12-04T06:38:44.213Z,39.03
2016-12-04T06:39:16.526Z,39.03
2016-12-04T06:39:48.846Z,38.83
2016-12-04T06:40:21.162Z,39.12
2016-12-04T06:40:53.489Z,38.83
2016-12-04T06:41:25.812Z,39.03
2016-12-04T06:41:58.128Z,39.03
2016-12-04T06:42:30.429Z,39.03
2016-12-04T06:43:02.741Z,38.93
2016-12-04T06:43:35.029Z,38.93
2016-12-04T06:44:07.339Z,38.93
2016-12-04T06:44:39.663Z,39.03
2016-12-04T06:45:11.969Z,38.93
2016-12-04T06:45:44.292Z,39.03
2016-12-04T06:46:16.603Z,38.93
2016-12-04T06:46:48.955Z,38.83
2016-12-04T06:47:21.263Z,38.93
2016-12-04T06:47:53.587Z,38.93
2016-12-04T06:48:25.902Z,38.83
2016-12-04T06:48:58.210Z,38.93
2016-12-04T06:49:30.537Z,38.83
2016-12-04T06:50:02.845Z,38.93
2016-12-04T06:50:35.165Z,38.74
2016-12-04T06:51:07.487Z,38.74
2016-12-04T06:51:39.831Z,38.83
2016-12-04T06:52:12.138Z,39.03
2016-12-04T06:52:44.448Z,38.74
2016-12-04T06:53:16.750Z,38.93
2016-12-04T06:53:49.054Z,38.93
2016-12-04T06:54:21.359Z,38.93
2016-12-04T06:54:53.678Z,38.93
2016-12-04T06:55:26.016Z,38.83
2016-12-04T06:55:58.333Z,38.83
2016-12-04T06:56:30.654Z,38.83
2016-12-04T06:57:02.971Z,39.12
2016-12-04T06:57:35.303Z,38.93
2016-12-04T06:58:07.620Z,38.83
2016-12-04T06:58:39.924Z,38.83
2016-12-04T06:59:12.267Z,38.83
2016-12-04T06:59:44.578Z,38.83
2016-12-04T07:00:16.904Z,38.83
2016-12-04T07:00:49.240Z,38.83